createdAt,value
2018-08-16T00:00:57.998Z,44.58
2018-08-16T00:01:57.961Z,45.06
2018-08-16T00:02:57.966Z,45.73
2018-08-16T00:03:58.058Z,46.02
2018-08-16T00:04:57.975Z,46.21
2018-08-16T00:05:57.965Z,46.89
2018-08-16T00:06:57.976Z,46.79
2018-08-16T00:07:57.967Z,47.94
2018-08-16T00:08:57.979Z,47.94
2018-08-16T00:09:57.988Z,48.11
2018-08-16T00:10:57.983Z,48.40
2018-08-16T00:11:57.993Z,48.40
2018-08-16T00:12:57.977Z,48.40
2018-08-16T00:13:58.010Z,49.55
2018-08-16T00:14:57.995Z,49.26
2018-08-16T00:15:58.008Z,48.40
2018-08-16T00:16:57.989Z,48.49
2018-08-16T00:17:57.985Z,47.92
2018-08-16T00:18:58.011Z,47.44
2018-08-16T00:19:57.999Z,47.05
2018-08-16T00:20:58.001Z,46.28
2018-08-16T00:21:58.102Z,45.81
2018-08-16T00:22:58.002Z,45.90
2018-08-16T00:23:58.018Z,45.42
2018-08-16T00:24:58.021Z,45.52
2018-08-16T00:25:58.014Z,45.90
2018-08-16T00:26:58.028Z,46.00
2018-08-16T00:27:58.027Z,45.14
2018-08-16T00:28:58.023Z,44.56
2018-08-16T00:29:58.035Z,44.37
2018-08-16T00:30:58.035Z,44.17
2018-08-16T00:31:58.032Z,44.37
2018-08-16T00:32:58.030Z,43.79
2018-08-16T00:33:58.035Z,44.27
2018-08-16T00:34:58.048Z,44.27
2018-08-16T00:35:58.043Z,44.75
2018-08-16T00:36:58.051Z,44.56
2018-08-16T00:37:58.047Z,44.56
2018-08-16T00:38:58.049Z,45.42
2018-08-16T00:39:58.077Z,45.52
2018-08-16T00:40:58.065Z,45.71
2018-08-16T00:41:58.064Z,45.61
2018-08-16T00:42:58.096Z,45.52
2018-08-16T00:43:58.620Z,45.90
2018-08-16T00:44:58.622Z,46.00
2018-08-16T00:45:59.696Z,45.42
2018-08-16T00:46:58.067Z,45.90
2018-08-16T00:47:58.078Z,46.09
2018-08-16T00:48:58.083Z,45.42
2018-08-16T00:49:58.085Z,45.71
2018-08-16T00:50:58.074Z,44.65
2018-08-16T00:51:58.084Z,44.46
2018-08-16T00:52:58.079Z,43.60
2018-08-16T00:53:58.088Z,42.81
2018-08-16T00:54:58.092Z,42.43
2018-08-16T00:55:58.106Z,41.75
2018-08-16T00:56:58.112Z,41.08
2018-08-16T00:57:58.164Z,40.60
2018-08-16T00:58:58.103Z,40.22
2018-08-16T00:59:58.126Z,39.54
2018-08-16T01:00:58.105Z,39.64
2018-08-16T01:01:58.112Z,38.96
2018-08-16T01:02:58.125Z,39.16
2018-08-16T01:03:58.138Z,38.39
2018-08-16T01:04:58.154Z,38.29
2018-08-16T01:05:58.119Z,37.91
2018-08-16T01:06:58.136Z,37.53
2018-08-16T01:07:58.130Z,37.43
2018-08-16T01:08:58.134Z,37.62
2018-08-16T01:09:58.135Z,37.62
2018-08-16T01:10:58.126Z,37.34
2018-08-16T01:11:58.129Z,38.29
2018-08-16T01:12:58.137Z,38.49
2018-08-16T01:13:58.136Z,38.29
2018-08-16T01:14:58.148Z,38.68
2018-08-16T01:15:58.210Z,38.39
2018-08-16T01:16:58.159Z,38.78
2018-08-16T01:17:58.154Z,38.49
2018-08-16T01:18:58.154Z,39.26
2018-08-16T01:19:58.167Z,39.35
2018-08-16T01:20:58.161Z,38.78
2018-08-16T01:21:58.162Z,39.06
2018-08-16T01:22:58.161Z,39.54
2018-08-16T01:23:58.169Z,39.54
2018-08-16T01:24:58.161Z,39.73
2018-08-16T01:25:58.178Z,39.73
2018-08-16T01:26:58.186Z,39.16
2018-08-16T01:27:58.162Z,39.93
2018-08-16T01:28:58.199Z,39.73
2018-08-16T01:29:58.180Z,39.54
2018-08-16T01:30:58.190Z,39.54
2018-08-16T01:31:58.176Z,39.73
2018-08-16T01:32:58.185Z,39.26
2018-08-16T01:33:58.186Z,39.83
2018-08-16T01:34:58.223Z,39.26
2018-08-16T01:35:58.190Z,39.35
2018-08-16T01:36:58.191Z,39.16
2018-08-16T01:37:58.197Z,39.64
2018-08-16T01:38:59.146Z,39.45
2018-08-16T01:39:58.211Z,39.45
2018-08-16T01:40:58.208Z,38.96
2018-08-16T01:41:58.207Z,38.78
2018-08-16T01:42:58.206Z,38.76
2018-08-16T01:43:58.206Z,38.87
2018-08-16T01:44:58.218Z,38.87
2018-08-16T01:45:58.216Z,38.49
2018-08-16T01:46:58.222Z,38.59
2018-08-16T01:47:58.228Z,38.29
2018-08-16T01:48:58.228Z,38.01
2018-08-16T01:49:58.224Z,38.01
2018-08-16T01:50:58.229Z,38.29
2018-08-16T01:51:59.146Z,38.20
2018-08-16T01:52:58.237Z,38.18
2018-08-16T01:53:58.238Z,37.24
2018-08-16T01:54:58.246Z,37.51
2018-08-16T01:55:58.243Z,37.60
2018-08-16T01:56:58.243Z,37.70
2018-08-16T01:57:58.254Z,37.60
2018-08-16T01:58:58.250Z,37.53
2018-08-16T01:59:58.253Z,37.53
2018-08-16T02:00:58.255Z,37.41
2018-08-16T02:01:58.265Z,37.34
2018-08-16T02:02:58.261Z,37.22
2018-08-16T02:03:58.255Z,37.41
2018-08-16T02:04:58.262Z,37.32
2018-08-16T02:05:58.264Z,37.62
2018-08-16T02:06:58.268Z,37.41
2018-08-16T02:07:58.272Z,37.41
2018-08-16T02:08:58.275Z,36.84
2018-08-16T02:09:58.295Z,36.93
2018-08-16T02:10:58.298Z,36.93
2018-08-16T02:11:58.296Z,36.93
2018-08-16T02:12:58.282Z,36.93
2018-08-16T02:13:58.280Z,36.36
2018-08-16T02:14:58.285Z,36.55
2018-08-16T02:15:58.293Z,36.55
2018-08-16T02:16:58.291Z,36.55
2018-08-16T02:17:58.293Z,37.13
2018-08-16T02:18:58.295Z,37.03
2018-08-16T02:19:58.296Z,37.03
2018-08-16T02:20:58.298Z,37.13
2018-08-16T02:21:58.296Z,36.74
2018-08-16T02:22:58.331Z,37.43
2018-08-16T02:23:58.304Z,37.51
2018-08-16T02:24:58.312Z,37.32
2018-08-16T02:25:58.323Z,37.51
2018-08-16T02:26:58.314Z,38.18
2018-08-16T02:27:58.348Z,38.47
2018-08-16T02:28:58.321Z,38.66
2018-08-16T02:29:58.316Z,38.18
2018-08-16T02:30:58.322Z,38.37
2018-08-16T02:31:58.330Z,38.56
2018-08-16T02:32:58.371Z,38.09
2018-08-16T02:33:58.338Z,38.09
2018-08-16T02:34:58.324Z,38.66
2018-08-16T02:35:58.336Z,38.28
2018-08-16T02:36:58.329Z,38.28
2018-08-16T02:37:58.344Z,38.37
2018-08-16T02:38:58.342Z,38.28
2018-08-16T02:39:58.343Z,38.28
2018-08-16T02:40:58.344Z,38.37
2018-08-16T02:41:58.349Z,38.37
2018-08-16T02:42:58.350Z,38.66
2018-08-16T02:43:58.357Z,38.66
2018-08-16T02:44:58.359Z,38.09
2018-08-16T02:45:59.167Z,38.37
2018-08-16T02:46:58.366Z,38.56
2018-08-16T02:47:58.361Z,38.18
2018-08-16T02:48:58.368Z,38.56
2018-08-16T02:49:58.369Z,38.37
2018-08-16T02:50:58.538Z,37.99
2018-08-16T02:51:58.379Z,37.41
2018-08-16T02:52:58.378Z,38.18
2018-08-16T02:53:58.397Z,38.28
2018-08-16T02:54:58.399Z,38.09
2018-08-16T02:55:58.386Z,38.47
2018-08-16T02:56:58.388Z,38.56
2018-08-16T02:57:58.401Z,38.66
2018-08-16T02:58:58.391Z,38.56
2018-08-16T02:59:58.391Z,39.72
2018-08-16T03:00:58.387Z,39.04
2018-08-16T03:01:58.389Z,38.95
2018-08-16T03:02:58.397Z,38.66
2018-08-16T03:03:58.407Z,38.76
2018-08-16T03:04:58.416Z,38.37
2018-08-16T03:05:58.414Z,38.66
2018-08-16T03:06:58.407Z,38.56
2018-08-16T03:07:58.418Z,38.28
2018-08-16T03:08:58.421Z,38.18
2018-08-16T03:09:58.411Z,38.56
2018-08-16T03:10:58.414Z,38.56
2018-08-16T03:11:58.435Z,38.47
2018-08-16T03:12:58.429Z,38.09
2018-08-16T03:13:58.430Z,38.28
2018-08-16T03:14:58.425Z,38.18
2018-08-16T03:15:58.433Z,38.76
2018-08-16T03:16:59.179Z,38.37
2018-08-16T03:17:58.447Z,38.66
2018-08-16T03:18:58.435Z,38.09
2018-08-16T03:19:58.446Z,38.09
2018-08-16T03:20:58.452Z,38.28
2018-08-16T03:21:58.444Z,38.18
2018-08-16T03:22:58.449Z,38.37
2018-08-16T03:23:58.443Z,38.56
2018-08-16T03:24:58.441Z,38.28
2018-08-16T03:25:58.452Z,38.47
2018-08-16T03:26:58.468Z,38.37
2018-08-16T03:27:58.463Z,38.18
2018-08-16T03:28:58.458Z,38.28
2018-08-16T03:29:58.561Z,37.32
2018-08-16T03:30:58.466Z,37.41
2018-08-16T03:31:58.481Z,37.60
2018-08-16T03:32:58.471Z,37.32
2018-08-16T03:33:58.471Z,37.22
2018-08-16T03:34:58.469Z,37.51
2018-08-16T03:35:58.507Z,36.93
2018-08-16T03:36:58.472Z,37.03
2018-08-16T03:37:58.474Z,37.22
2018-08-16T03:38:58.483Z,36.65
2018-08-16T03:39:58.481Z,36.46
2018-08-16T03:40:58.490Z,36.65
2018-08-16T03:41:58.495Z,36.46
2018-08-16T03:42:58.487Z,36.93
2018-08-16T03:43:58.507Z,37.41
2018-08-16T03:44:58.512Z,37.70
2018-08-16T03:45:58.499Z,37.51
2018-08-16T03:46:58.507Z,37.41
2018-08-16T03:47:58.552Z,37.32
2018-08-16T03:48:58.495Z,37.60
2018-08-16T03:49:58.496Z,37.70
2018-08-16T03:50:58.526Z,37.41
2018-08-16T03:51:58.511Z,37.41
2018-08-16T03:52:58.514Z,37.41
2018-08-16T03:53:58.515Z,37.51
2018-08-16T03:54:58.523Z,37.51
2018-08-16T03:55:58.530Z,37.51
2018-08-16T03:56:58.530Z,37.51
2018-08-16T03:57:58.514Z,37.32
2018-08-16T03:58:58.525Z,37.99
2018-08-16T03:59:58.531Z,38.18
2018-08-16T04:00:58.535Z,37.51
2018-08-16T04:01:58.533Z,37.51
2018-08-16T04:02:58.537Z,37.41
2018-08-16T04:03:58.544Z,37.41
2018-08-16T04:04:58.547Z,37.51
2018-08-16T04:05:58.539Z,37.32
2018-08-16T04:06:58.541Z,37.32
2018-08-16T04:07:58.549Z,36.93
2018-08-16T04:08:58.552Z,36.93
2018-08-16T04:09:58.553Z,36.65
2018-08-16T04:10:58.551Z,36.74
2018-08-16T04:11:58.561Z,37.03
2018-08-16T04:12:58.560Z,37.03
2018-08-16T04:13:58.591Z,37.13
2018-08-16T04:14:58.560Z,37.03
2018-08-16T04:15:58.559Z,36.65
2018-08-16T04:16:58.568Z,37.03
2018-08-16T04:17:58.569Z,37.03
2018-08-16T04:18:58.578Z,37.22
2018-08-16T04:19:58.601Z,36.93
2018-08-16T04:20:58.583Z,36.65
2018-08-16T04:21:58.579Z,36.16
2018-08-16T04:22:58.579Z,35.97
2018-08-16T04:23:58.680Z,35.96
2018-08-16T04:24:58.593Z,36.16
2018-08-16T04:25:58.582Z,36.16
2018-08-16T04:26:58.603Z,35.97
2018-08-16T04:27:58.595Z,36.55
2018-08-16T04:28:58.632Z,36.26
2018-08-16T04:29:58.614Z,36.55
2018-08-16T04:30:58.599Z,36.65
2018-08-16T04:31:58.645Z,37.13
2018-08-16T04:32:58.600Z,36.93
2018-08-16T04:33:58.620Z,37.51
2018-08-16T04:34:58.615Z,37.41
2018-08-16T04:35:58.636Z,37.51
2018-08-16T04:36:58.607Z,37.60
2018-08-16T04:37:58.624Z,37.32
2018-08-16T04:38:58.613Z,38.18
2018-08-16T04:39:58.621Z,38.47
2018-08-16T04:40:58.621Z,38.66
2018-08-16T04:41:58.773Z,38.28
2018-08-16T04:42:58.680Z,38.47
2018-08-16T04:43:58.635Z,38.95
2018-08-16T04:44:58.656Z,39.53
2018-08-16T04:45:58.631Z,39.53
2018-08-16T04:46:58.634Z,40.02
2018-08-16T04:47:58.670Z,40.31
2018-08-16T04:48:58.640Z,40.41
2018-08-16T04:49:58.637Z,41.46
2018-08-16T04:50:58.650Z,41.46
2018-08-16T04:51:58.645Z,42.33
2018-08-16T04:52:58.657Z,42.71
2018-08-16T04:53:58.645Z,43.19
2018-08-16T04:54:58.703Z,44.44
2018-08-16T04:55:58.652Z,44.54
2018-08-16T04:56:58.773Z,45.40
2018-08-16T04:57:58.656Z,46.17
2018-08-16T04:58:58.669Z,46.48
2018-08-16T04:59:58.693Z,47.44
2018-08-16T05:00:58.672Z,47.44
2018-08-16T05:01:58.675Z,47.53
2018-08-16T05:02:58.676Z,47.44
2018-08-16T05:03:58.667Z,48.02
2018-08-16T05:04:58.671Z,50.03
2018-08-16T05:05:58.688Z,50.42
2018-08-16T05:06:58.684Z,50.23
2018-08-16T05:07:58.719Z,50.70
2018-08-16T05:08:58.677Z,50.61
2018-08-16T05:09:58.721Z,50.99
2018-08-16T05:10:58.710Z,51.09
2018-08-16T05:11:58.689Z,51.47
2018-08-16T05:12:58.691Z,52.14
2018-08-16T05:13:58.697Z,52.94
2018-08-16T05:14:58.706Z,54.47
2018-08-16T05:15:58.710Z,55.73
2018-08-16T05:16:58.702Z,57.17
2018-08-16T05:17:58.701Z,57.36
2018-08-16T05:18:58.706Z,58.13
2018-08-16T05:19:58.699Z,59.47
2018-08-16T05:20:58.715Z,60.08
2018-08-16T05:21:58.716Z,62.00
2018-08-16T05:22:58.719Z,62.19
2018-08-16T05:23:58.749Z,63.54
2018-08-16T05:24:58.718Z,63.64
2018-08-16T05:25:58.734Z,65.30
2018-08-16T05:26:58.739Z,65.37
2018-08-16T05:27:58.763Z,66.27
2018-08-16T05:28:58.730Z,65.40
2018-08-16T05:29:58.732Z,66.65
2018-08-16T05:30:58.745Z,71.01
2018-08-16T05:31:59.852Z,77.69
2018-08-16T05:32:58.743Z,80.87
2018-08-16T05:33:58.745Z,81.73
2018-08-16T05:34:58.739Z,81.73
2018-08-16T05:35:58.799Z,82.16
2018-08-16T05:36:58.748Z,84.28
2018-08-16T05:37:58.751Z,86.82
2018-08-16T05:38:58.767Z,94.96
2018-08-16T05:39:58.761Z,97.14
2018-08-16T05:40:58.763Z,99.99
2018-08-16T05:41:58.761Z,99.99
2018-08-16T05:42:58.800Z,99.99
2018-08-16T05:43:58.767Z,99.99
2018-08-16T05:44:58.783Z,99.99
2018-08-16T05:45:58.774Z,99.99
2018-08-16T05:46:58.791Z,99.99
2018-08-16T05:47:58.784Z,99.99
2018-08-16T05:48:58.864Z,99.99
2018-08-16T05:49:58.796Z,99.99
2018-08-16T05:50:59.004Z,99.99
2018-08-16T05:51:58.832Z,99.99
2018-08-16T05:52:58.791Z,99.99
2018-08-16T05:53:58.809Z,99.99
2018-08-16T05:54:58.804Z,99.99
2018-08-16T05:55:58.807Z,99.99
2018-08-16T05:56:58.810Z,99.99
2018-08-16T05:57:58.817Z,99.99
2018-08-16T05:58:58.813Z,99.99
2018-08-16T05:59:58.837Z,99.99
2018-08-16T06:00:58.846Z,99.99
2018-08-16T06:01:58.841Z,99.99
2018-08-16T06:02:58.826Z,99.99
2018-08-16T06:03:58.852Z,99.99
2018-08-16T06:04:58.861Z,99.99
2018-08-16T06:05:58.841Z,99.99
2018-08-16T06:06:58.934Z,99.99
2018-08-16T06:07:58.847Z,99.99
2018-08-16T06:08:58.859Z,99.99
2018-08-16T06:09:58.865Z,99.99
2018-08-16T06:10:58.887Z,99.32
2018-08-16T06:11:58.872Z,97.86
2018-08-16T06:12:58.969Z,96.31
2018-08-16T06:13:58.890Z,95.72
2018-08-16T06:14:58.892Z,95.73
2018-08-16T06:15:58.897Z,95.97
2018-08-16T06:16:58.906Z,95.92
2018-08-16T06:17:58.906Z,94.07
2018-08-16T06:18:58.915Z,93.25
2018-08-16T06:19:58.959Z,93.54
2018-08-16T06:20:58.923Z,94.07
2018-08-16T06:21:58.924Z,93.10
2018-08-16T06:22:58.929Z,91.74
2018-08-16T06:23:58.960Z,90.28
2018-08-16T06:24:58.947Z,91.65
2018-08-16T06:25:58.954Z,94.56
2018-08-16T06:26:58.952Z,95.04
2018-08-16T06:27:58.990Z,96.36
2018-08-16T06:28:58.964Z,98.83
2018-08-16T06:29:59.772Z,99.65
2018-08-16T06:30:59.050Z,99.99
2018-08-16T06:31:58.986Z,98.25
2018-08-16T06:32:58.999Z,95.34
2018-08-16T06:33:59.001Z,94.37
2018-08-16T06:34:58.998Z,94.17
2018-08-16T06:35:59.007Z,94.32
2018-08-16T06:36:59.015Z,93.39
2018-08-16T06:37:59.019Z,91.41
2018-08-16T06:38:59.098Z,94.46
2018-08-16T06:39:59.040Z,97.13
2018-08-16T06:40:59.044Z,98.58
2018-08-16T06:41:59.070Z,99.99
2018-08-16T06:42:59.053Z,99.99
2018-08-16T06:43:59.070Z,99.99
2018-08-16T06:44:59.064Z,99.99
2018-08-16T06:45:59.078Z,99.99
2018-08-16T06:46:59.088Z,99.99
2018-08-16T06:47:59.084Z,99.99
2018-08-16T06:48:59.092Z,99.69
2018-08-16T06:49:59.102Z,99.55
2018-08-16T06:50:59.112Z,99.79
2018-08-16T06:51:59.120Z,99.99
2018-08-16T06:52:59.130Z,99.99
2018-08-16T06:53:59.131Z,99.99
2018-08-16T06:54:59.167Z,99.99
2018-08-16T06:55:59.154Z,99.99
2018-08-16T06:56:59.157Z,99.99
2018-08-16T06:57:59.779Z,99.99
2018-08-16T06:58:59.166Z,99.99
2018-08-16T06:59:59.167Z,99.99
2018-08-16T07:00:59.246Z,99.41
2018-08-16T07:01:59.197Z,97.33
2018-08-16T07:02:59.191Z,95.77
2018-08-16T07:03:59.198Z,92.42
2018-08-16T07:04:59.275Z,89.11
2018-08-16T07:05:59.207Z,87.70
2018-08-16T07:06:59.219Z,85.35
2018-08-16T07:07:59.225Z,82.60
2018-08-16T07:08:59.215Z,80.21
2018-08-16T07:09:59.255Z,80.52
2018-08-16T07:10:59.364Z,79.10
2018-08-16T07:11:59.316Z,77.58
2018-08-16T07:12:59.252Z,77.48
2018-08-16T07:13:59.266Z,78.36
2018-08-16T07:14:59.297Z,78.65
2018-08-16T07:15:59.296Z,77.62
2018-08-16T07:16:59.287Z,76.90
2018-08-16T07:17:59.332Z,77.39
2018-08-16T07:18:59.306Z,76.31
2018-08-16T07:19:59.309Z,75.53
2018-08-16T07:20:59.327Z,78.28
2018-08-16T07:21:59.339Z,79.20
2018-08-16T07:22:59.349Z,77.44
2018-08-16T07:23:59.360Z,77.93
2018-08-16T07:24:59.357Z,77.29
2018-08-16T07:25:59.374Z,77.09
2018-08-16T07:26:59.383Z,76.90
2018-08-16T07:27:59.408Z,74.60
2018-08-16T07:28:59.421Z,75.20
2018-08-16T07:29:59.498Z,75.49
2018-08-16T07:30:59.412Z,75.75
2018-08-16T07:31:59.458Z,76.47
2018-08-16T07:32:59.456Z,74.44
2018-08-16T07:34:00.304Z,72.19
2018-08-16T07:34:59.477Z,73.72
2018-08-16T07:35:59.481Z,73.88
2018-08-16T07:36:59.478Z,74.60
2018-08-16T07:37:59.488Z,76.57
2018-08-16T07:39:00.301Z,75.27
2018-08-16T07:39:59.521Z,75.37
2018-08-16T07:40:59.517Z,73.85
2018-08-16T07:41:59.573Z,73.03
2018-08-16T07:42:59.563Z,73.33
2018-08-16T07:43:59.556Z,72.64
2018-08-16T07:44:59.566Z,72.58
2018-08-16T07:45:59.667Z,74.04
2018-08-16T07:46:59.644Z,75.04
2018-08-16T07:48:01.306Z,73.01
2018-08-16T07:48:59.755Z,72.03
2018-08-16T07:49:59.635Z,70.96
2018-08-16T07:50:59.705Z,70.47
2018-08-16T07:51:59.764Z,68.19
2018-08-16T07:52:59.705Z,68.10
2018-08-16T07:53:59.691Z,68.98
2018-08-16T07:54:59.697Z,67.22
2018-08-16T07:55:59.730Z,68.62
2018-08-16T07:56:59.807Z,70.08
2018-08-16T07:57:59.730Z,69.24
2018-08-16T07:58:59.742Z,69.85
2018-08-16T07:59:59.747Z,67.87
2018-08-16T08:00:59.785Z,69.79
2018-08-16T08:01:59.933Z,69.01
2018-08-16T08:02:59.796Z,68.29
2018-08-16T08:03:59.805Z,67.25
2018-08-16T08:04:59.833Z,67.19
2018-08-16T08:05:59.823Z,65.75
2018-08-16T08:06:59.996Z,65.85
2018-08-16T08:07:59.848Z,65.65
2018-08-16T08:09:00.075Z,65.98
2018-08-16T08:09:59.885Z,63.85
2018-08-16T08:10:59.927Z,64.67
2018-08-16T08:11:59.974Z,64.90
2018-08-16T08:12:59.970Z,64.31
2018-08-16T08:13:59.987Z,64.18
2018-08-16T08:14:59.945Z,64.64
2018-08-16T08:15:59.956Z,64.61
2018-08-16T08:16:59.983Z,64.34
2018-08-16T08:17:59.985Z,62.91
2018-08-16T08:19:00.833Z,63.01
2018-08-16T08:20:00.036Z,64.48
2018-08-16T08:21:00.148Z,67.93
2018-08-16T08:22:00.044Z,68.68
2018-08-16T08:23:00.055Z,68.36
2018-08-16T08:24:00.095Z,68.32
2018-08-16T08:25:00.088Z,67.97
2018-08-16T08:26:00.122Z,66.83
2018-08-16T08:27:00.144Z,67.44
2018-08-16T08:28:00.844Z,65.26
2018-08-16T08:29:00.279Z,66.96
2018-08-16T08:30:00.184Z,67.25
2018-08-16T08:31:00.180Z,68.62
2018-08-16T08:32:00.199Z,70.01
2018-08-16T08:33:00.210Z,71.95
2018-08-16T08:34:00.297Z,74.65
2018-08-16T08:35:00.281Z,73.18
2018-08-16T08:36:00.244Z,76.10
2018-08-16T08:37:00.256Z,74.13
2018-08-16T08:38:00.277Z,72.23
2018-08-16T08:39:00.432Z,70.25
2018-08-16T08:40:00.320Z,68.19
2018-08-16T08:41:00.340Z,69.82
2018-08-16T08:42:00.351Z,68.52
2018-08-16T08:43:00.376Z,68.74
2018-08-16T08:44:00.373Z,72.02
2018-08-16T08:45:00.413Z,77.00
2018-08-16T08:46:00.421Z,75.07
2018-08-16T08:47:01.349Z,71.66
2018-08-16T08:48:00.556Z,73.67
2018-08-16T08:49:00.475Z,72.12
2018-08-16T08:50:00.459Z,71.60
2018-08-16T08:51:00.488Z,72.70
2018-08-16T08:52:00.478Z,75.74
2018-08-16T08:53:00.512Z,78.23
2018-08-16T08:54:00.523Z,76.01
2018-08-16T08:55:03.469Z,73.84
2018-08-16T08:56:00.581Z,76.48
2018-08-16T08:57:01.357Z,78.67
2018-08-16T08:58:00.565Z,79.51
2018-08-16T08:59:00.573Z,79.35
2018-08-16T09:00:00.586Z,78.85
2018-08-16T09:01:00.626Z,77.68
2018-08-16T09:02:00.636Z,79.39
2018-08-16T09:03:00.615Z,78.94
2018-08-16T09:04:00.664Z,76.63
2018-08-16T09:05:00.697Z,76.14
2018-08-16T09:06:00.667Z,73.55
2018-08-16T09:07:01.364Z,72.84
2018-08-16T09:08:00.686Z,71.41
2018-08-16T09:09:00.725Z,68.95
2018-08-16T09:10:00.719Z,68.88
2018-08-16T09:11:00.730Z,68.95
2018-08-16T09:12:01.367Z,68.49
2018-08-16T09:13:00.758Z,67.87
2018-08-16T09:14:00.777Z,67.05
2018-08-16T09:15:00.780Z,66.76
2018-08-16T09:16:00.840Z,67.68
2018-08-16T09:17:00.839Z,68.10
2018-08-16T09:18:00.835Z,66.66
2018-08-16T09:19:00.857Z,67.02
2018-08-16T09:20:00.877Z,68.55
2018-08-16T09:21:00.871Z,67.97
2018-08-16T09:22:00.995Z,68.23
2018-08-16T09:23:00.909Z,70.86
2018-08-16T09:24:00.981Z,71.89
2018-08-16T09:25:00.936Z,72.57
2018-08-16T09:26:00.945Z,73.65
2018-08-16T09:27:00.978Z,72.00
2018-08-16T09:28:00.980Z,70.14
2018-08-16T09:29:00.995Z,69.43
2018-08-16T09:30:01.015Z,67.68
2018-08-16T09:31:01.113Z,65.65
2018-08-16T09:32:01.887Z,67.05
2018-08-16T09:33:01.094Z,70.10
2018-08-16T09:34:01.064Z,74.45
2018-08-16T09:35:01.123Z,72.94
2018-08-16T09:36:01.101Z,70.64
2018-08-16T09:37:01.127Z,66.73
2018-08-16T09:38:01.127Z,65.72
2018-08-16T09:39:01.138Z,68.77
2018-08-16T09:40:01.169Z,70.95
2018-08-16T09:41:01.163Z,70.73
2018-08-16T09:42:01.214Z,68.07
2018-08-16T09:43:01.199Z,69.04
2018-08-16T09:44:01.264Z,67.90
2018-08-16T09:45:01.295Z,66.44
2018-08-16T09:46:01.254Z,65.69
2018-08-16T09:47:01.266Z,66.44
2018-08-16T09:48:01.275Z,66.05
2018-08-16T09:49:01.300Z,68.29
2018-08-16T09:50:01.349Z,66.69
2018-08-16T09:51:01.320Z,65.69
2018-08-16T09:52:01.338Z,67.09
2018-08-16T09:53:01.363Z,68.23
2018-08-16T09:54:01.372Z,67.64
2018-08-16T09:55:01.402Z,68.91
2018-08-16T09:56:01.424Z,67.22
2018-08-16T09:57:01.430Z,67.38
2018-08-16T09:58:01.457Z,67.12
2018-08-16T09:59:01.475Z,67.15
2018-08-16T10:00:01.489Z,66.53
2018-08-16T10:01:01.519Z,67.25
2018-08-16T10:02:01.582Z,66.53
2018-08-16T10:03:01.540Z,64.34
2018-08-16T10:04:01.572Z,63.17
2018-08-16T10:05:01.569Z,63.54
2018-08-16T10:06:01.584Z,65.81
2018-08-16T10:07:01.609Z,64.90
2018-08-16T10:08:01.618Z,63.73
2018-08-16T10:09:01.662Z,62.78
2018-08-16T10:10:01.721Z,62.35
2018-08-16T10:11:01.740Z,63.60
2018-08-16T10:12:01.795Z,65.49
2018-08-16T10:13:01.782Z,65.46
2018-08-16T10:14:01.761Z,65.91
2018-08-16T10:15:01.837Z,63.60
2018-08-16T10:18:41.921Z,65.59
2018-08-16T10:19:34.145Z,66.47
2018-08-16T10:20:35.872Z,66.40
2018-08-16T10:22:34.213Z,65.75
2018-08-16T10:23:34.284Z,66.56
2018-08-16T10:24:34.238Z,64.74
2018-08-16T10:25:34.259Z,64.25
2018-08-16T10:26:34.343Z,64.51
2018-08-16T10:27:34.341Z,65.75
2018-08-16T10:28:34.546Z,65.06
2018-08-16T10:29:34.318Z,63.04
2018-08-16T10:30:34.393Z,63.24
2018-08-16T10:31:34.403Z,63.07
2018-08-16T10:32:34.466Z,63.60
2018-08-16T10:33:34.433Z,64.48
2018-08-16T10:34:34.495Z,65.88
2018-08-16T10:35:34.495Z,65.42
2018-08-16T10:36:34.450Z,64.61
2018-08-16T10:37:34.491Z,64.32
2018-08-16T10:38:34.601Z,65.81
2018-08-16T10:39:34.548Z,64.58
2018-08-16T10:40:34.528Z,64.28
2018-08-16T10:41:34.652Z,65.78
2018-08-16T10:42:34.640Z,64.12
2018-08-16T10:43:34.730Z,65.23
2018-08-16T10:44:34.631Z,64.06
2018-08-16T10:45:34.616Z,63.04
2018-08-16T10:46:34.691Z,64.15
2018-08-16T10:47:34.689Z,66.08
2018-08-16T10:48:34.704Z,64.15
2018-08-16T10:49:34.739Z,63.73
2018-08-16T10:50:34.765Z,63.60
2018-08-16T10:51:34.778Z,64.22
2018-08-16T10:52:34.823Z,63.18
2018-08-16T10:53:34.830Z,64.61
2018-08-16T10:54:34.857Z,64.81
2018-08-16T10:55:34.871Z,65.78
2018-08-16T10:56:34.944Z,64.58
2018-08-16T10:57:34.910Z,64.32
2018-08-16T10:58:35.010Z,65.07
2018-08-16T10:59:34.957Z,64.78
2018-08-16T11:00:34.911Z,65.46
2018-08-16T11:01:34.965Z,65.62
2018-08-16T11:02:34.995Z,64.94
2018-08-16T11:03:34.986Z,65.78
2018-08-16T11:04:35.029Z,65.23
2018-08-16T11:05:35.049Z,65.17
2018-08-16T11:06:35.149Z,66.34
2018-08-16T11:07:35.152Z,66.27
2018-08-16T11:08:35.130Z,67.25
2018-08-16T11:09:35.133Z,65.23
2018-08-16T11:10:35.141Z,65.82
2018-08-16T11:11:35.199Z,66.41
2018-08-16T11:12:35.158Z,66.79
2018-08-16T11:13:35.182Z,69.17
2018-08-16T11:14:35.347Z,69.84
2018-08-16T11:15:35.154Z,70.30
2018-08-16T11:16:35.192Z,71.56
2018-08-16T11:17:35.226Z,72.15
2018-08-16T11:18:35.232Z,71.50
2018-08-16T11:19:35.241Z,71.70
2018-08-16T11:20:35.336Z,71.01
2018-08-16T11:21:35.284Z,70.14
2018-08-16T11:22:35.346Z,70.47
2018-08-16T11:23:35.334Z,70.66
2018-08-16T11:24:35.552Z,70.37
2018-08-16T11:25:35.419Z,69.56
2018-08-16T11:26:35.362Z,70.82
2018-08-16T11:27:35.360Z,70.33
2018-08-16T11:28:35.382Z,69.78
2018-08-16T11:29:35.419Z,70.33
2018-08-16T11:30:35.364Z,69.78
2018-08-16T11:31:35.418Z,69.39
2018-08-16T11:32:35.454Z,69.88
2018-08-16T11:33:35.674Z,69.29
2018-08-16T11:34:35.553Z,69.17
2018-08-16T11:35:35.459Z,68.68
2018-08-16T11:36:35.470Z,68.55
2018-08-16T11:37:35.930Z,69.46
2018-08-16T11:38:36.190Z,69.03
2018-08-16T11:39:35.519Z,69.81
2018-08-16T11:40:35.577Z,69.65
2018-08-16T11:41:35.856Z,69.07
2018-08-16T11:42:35.547Z,69.56
2018-08-16T11:43:35.547Z,69.62
2018-08-16T11:44:35.550Z,69.17
2018-08-16T11:45:35.581Z,69.56
2018-08-16T11:46:35.636Z,69.62
2018-08-16T11:47:35.624Z,70.50
2018-08-16T11:48:35.584Z,70.04
2018-08-16T11:49:35.603Z,69.42
2018-08-16T11:50:35.573Z,68.06
2018-08-16T11:51:35.586Z,69.32
2018-08-16T11:52:35.626Z,69.32
2018-08-16T11:53:35.650Z,68.74
2018-08-16T11:54:35.628Z,69.81
2018-08-16T11:55:35.660Z,69.75
2018-08-16T11:56:38.765Z,70.04
2018-08-16T11:57:35.731Z,68.58
2018-08-16T11:58:36.723Z,69.71
2018-08-16T11:59:35.738Z,69.62
2018-08-16T12:00:35.653Z,69.94
2018-08-16T12:01:35.790Z,69.46
2018-08-16T12:02:35.854Z,69.94
2018-08-16T12:03:36.374Z,69.10
2018-08-16T12:04:38.643Z,68.13
2018-08-16T12:05:35.770Z,68.90
2018-08-16T12:06:35.765Z,70.27
2018-08-16T12:07:36.445Z,69.98
2018-08-16T12:08:35.734Z,68.13
2018-08-16T12:09:35.805Z,68.52
2018-08-16T12:10:36.450Z,69.39
2018-08-16T12:11:35.839Z,68.09
2018-08-16T12:12:35.824Z,68.71
2018-08-16T12:13:37.527Z,67.35
2018-08-16T12:14:36.011Z,66.86
2018-08-16T12:15:35.895Z,67.64
2018-08-16T12:16:35.889Z,67.64
2018-08-16T12:17:35.908Z,66.73
2018-08-16T12:18:35.876Z,67.96
2018-08-16T12:19:35.907Z,68.35
2018-08-16T12:20:35.924Z,68.09
2018-08-16T12:21:36.082Z,67.93
2018-08-16T12:22:36.455Z,67.90
2018-08-16T12:23:35.941Z,67.12
2018-08-16T12:24:35.894Z,66.66
2018-08-16T12:25:35.905Z,67.35
2018-08-16T12:26:36.011Z,69.32
2018-08-16T12:27:36.184Z,68.87
2018-08-16T12:28:35.981Z,68.58
2018-08-16T12:29:37.017Z,68.29
2018-08-16T12:30:36.460Z,68.13
2018-08-16T12:31:36.141Z,67.90
2018-08-16T12:32:37.100Z,67.60
2018-08-16T12:33:36.210Z,67.50
2018-08-16T12:36:09.180Z,67.80
2018-08-16T12:37:09.203Z,68.09
2018-08-16T12:38:09.226Z,67.12
2018-08-16T12:39:09.645Z,66.14
2018-08-16T12:40:09.233Z,66.69
2018-08-16T12:41:10.133Z,67.18
2018-08-16T12:42:09.371Z,68.06
2018-08-16T12:43:09.247Z,68.06
2018-08-16T12:44:09.214Z,67.47
2018-08-16T12:45:09.247Z,68.74
2018-08-16T12:46:09.269Z,66.99
2018-08-16T12:47:09.258Z,67.38
2018-08-16T12:48:09.259Z,68.29
2018-08-16T12:49:09.243Z,66.69
2018-08-16T12:50:09.263Z,66.11
2018-08-16T12:51:09.440Z,66.50
2018-08-16T12:52:09.302Z,66.99
2018-08-16T12:53:09.292Z,67.47
2018-08-16T12:54:10.102Z,67.77
2018-08-16T12:55:09.298Z,67.96
2018-08-16T12:56:09.362Z,67.28
2018-08-16T12:57:09.313Z,67.47
2018-08-16T12:58:09.318Z,68.26